SWA4012 KLBB-KHOU
Flight info
| Callsign | SWA4012 |
|---|---|
| Flight time | 1h 10m |
| Altitude | 37000 |
| Route | ABI DILLO KIDDZ5 |
| Aircraft | B38M/M-SADE2E3GHIJ4J7P2RWZ/LB1D1 |
Departure
| Time | 2026-05-07 21:26 |
|---|---|
| Airport | Lubbock Preston Smith International Airport (KLBB) |
Arrival
| Time | 2026-05-07 22:36 |
|---|---|
| Airport | William P. Hobby Airport (KHOU) |
| Time | Latitude | Longitude | Altitude | Speed | Heading |
|---|---|---|---|---|---|
| 2026-05-07 21:09 | 33.65640 | -101.82341 | 3295 ft | 0 kts | 146° |
| 2026-05-07 21:17 | 33.65642 | -101.82342 | 3295 ft | 3 kts | 146° |
| 2026-05-07 21:17 | 33.65663 | -101.82360 | 3295 ft | 4 kts | 141° |
| 2026-05-07 21:17 | 33.65684 | -101.82382 | 3295 ft | 4 kts | 136° |
| 2026-05-07 21:17 | 33.65692 | -101.82391 | 3295 ft | 2 kts | 136° |
| 2026-05-07 21:21 | 33.65691 | -101.82390 | 3295 ft | 0 kts | 136° |
| 2026-05-07 21:21 | 33.65688 | -101.82380 | 3295 ft | 2 kts | 91° |
| 2026-05-07 21:21 | 33.65693 | -101.82374 | 3295 ft | 1 kts | 34° |
| 2026-05-07 21:22 | 33.65698 | -101.82373 | 3295 ft | 1 kts | 357° |
| 2026-05-07 21:22 | 33.65703 | -101.82401 | 3295 ft | 6 kts | 272° |
| 2026-05-07 21:22 | 33.65735 | -101.82479 | 3295 ft | 16 kts | 297° |
| 2026-05-07 21:22 | 33.65770 | -101.82638 | 3295 ft | 18 kts | 265° |
| 2026-05-07 21:23 | 33.65678 | -101.82688 | 3295 ft | 16 kts | 179° |
| 2026-05-07 21:23 | 33.65562 | -101.82686 | 3295 ft | 17 kts | 181° |
| 2026-05-07 21:23 | 33.65437 | -101.82688 | 3296 ft | 18 kts | 180° |
| 2026-05-07 21:23 | 33.65306 | -101.82686 | 3296 ft | 19 kts | 179° |
| 2026-05-07 21:24 | 33.65170 | -101.82686 | 3296 ft | 20 kts | 179° |
| 2026-05-07 21:24 | 33.65091 | -101.82728 | 3296 ft | 12 kts | 256° |
| 2026-05-07 21:24 | 33.65093 | -101.82830 | 3298 ft | 12 kts | 272° |
| 2026-05-07 21:24 | 33.65114 | -101.82882 | 3298 ft | 3 kts | 354° |
| 2026-05-07 21:25 | 33.65155 | -101.82882 | 3298 ft | 13 kts | 0° |
| 2026-05-07 21:25 | 33.65488 | -101.82884 | 3298 ft | 82 kts | 360° |
| 2026-05-07 21:25 | 33.66272 | -101.82889 | 3294 ft | 141 kts | 360° |
| 2026-05-07 21:25 | 33.67403 | -101.82897 | 3387 ft | 177 kts | 359° |
| 2026-05-07 21:26 | 33.68640 | -101.82900 | 3907 ft | 189 kts | 4° |
| 2026-05-07 21:26 | 33.69901 | -101.82443 | 4445 ft | 198 kts | 36° |
| 2026-05-07 21:26 | 33.70751 | -101.81116 | 4886 ft | 211 kts | 74° |
| 2026-05-07 21:26 | 33.70840 | -101.79340 | 5379 ft | 221 kts | 101° |
| 2026-05-07 21:27 | 33.70356 | -101.77510 | 5800 ft | 240 kts | 123° |
| 2026-05-07 21:27 | 33.69334 | -101.75850 | 6300 ft | 257 kts | 130° |
| 2026-05-07 21:27 | 33.68203 | -101.74081 | 6765 ft | 276 kts | 129° |
| 2026-05-07 21:27 | 33.67032 | -101.72223 | 7500 ft | 280 kts | 129° |
| 2026-05-07 21:28 | 33.65843 | -101.70330 | 8224 ft | 288 kts | 129° |
| 2026-05-07 21:28 | 33.64631 | -101.68392 | 8986 ft | 293 kts | 129° |
| 2026-05-07 21:28 | 33.63411 | -101.66442 | 9672 ft | 301 kts | 129° |
| 2026-05-07 21:28 | 33.62142 | -101.64411 | 10374 ft | 306 kts | 130° |
| 2026-05-07 21:29 | 33.60850 | -101.62345 | 11069 ft | 312 kts | 130° |
| 2026-05-07 21:29 | 33.59536 | -101.60243 | 11797 ft | 318 kts | 130° |
| 2026-05-07 21:29 | 33.58196 | -101.58101 | 12527 ft | 324 kts | 131° |
| 2026-05-07 21:29 | 33.57152 | -101.56434 | 13122 ft | 328 kts | 131° |
| 2026-05-07 21:30 | 33.56736 | -101.55770 | 13346 ft | 330 kts | 131° |
| 2026-05-07 21:30 | 33.56348 | -101.55150 | 13563 ft | 332 kts | 131° |
| 2026-05-07 21:30 | 33.55058 | -101.53090 | 14021 ft | 346 kts | 131° |
| 2026-05-07 21:30 | 33.53594 | -101.50742 | 14326 ft | 366 kts | 131° |
| 2026-05-07 21:31 | 33.52038 | -101.48246 | 14752 ft | 380 kts | 131° |
| 2026-05-07 21:31 | 33.50437 | -101.45687 | 15423 ft | 385 kts | 131° |
| 2026-05-07 21:31 | 33.48822 | -101.43115 | 16173 ft | 389 kts | 131° |
| 2026-05-07 21:31 | 33.47188 | -101.40515 | 16862 ft | 393 kts | 131° |
| 2026-05-07 21:32 | 33.45540 | -101.37891 | 17588 ft | 396 kts | 131° |
| 2026-05-07 21:32 | 33.43871 | -101.35243 | 18257 ft | 400 kts | 131° |
| 2026-05-07 21:32 | 33.42184 | -101.32569 | 18844 ft | 404 kts | 132° |
| 2026-05-07 21:32 | 33.40483 | -101.29872 | 19409 ft | 408 kts | 132° |
| 2026-05-07 21:33 | 33.38783 | -101.27180 | 19940 ft | 413 kts | 132° |
| 2026-05-07 21:33 | 33.37040 | -101.24419 | 20497 ft | 417 kts | 133° |
| 2026-05-07 21:33 | 33.35281 | -101.21638 | 21050 ft | 422 kts | 133° |
| 2026-05-07 21:33 | 33.33503 | -101.18826 | 21588 ft | 426 kts | 133° |
| 2026-05-07 21:34 | 33.31707 | -101.15989 | 22117 ft | 430 kts | 133° |
| 2026-05-07 21:34 | 33.29893 | -101.13126 | 22651 ft | 434 kts | 133° |
| 2026-05-07 21:34 | 33.28062 | -101.10237 | 23171 ft | 438 kts | 134° |
| 2026-05-07 21:34 | 33.26214 | -101.07326 | 23681 ft | 442 kts | 134° |
| 2026-05-07 21:35 | 33.24350 | -101.04390 | 24117 ft | 445 kts | 134° |
| 2026-05-07 21:35 | 33.22499 | -101.01478 | 24575 ft | 447 kts | 135° |
| 2026-05-07 21:35 | 33.20611 | -100.98510 | 25024 ft | 450 kts | 135° |
| 2026-05-07 21:35 | 33.18713 | -100.95528 | 25471 ft | 452 kts | 135° |
| 2026-05-07 21:36 | 33.16806 | -100.92536 | 25936 ft | 454 kts | 136° |
| 2026-05-07 21:36 | 33.14892 | -100.89535 | 26365 ft | 456 kts | 136° |
| 2026-05-07 21:36 | 33.12966 | -100.86516 | 26799 ft | 458 kts | 136° |
| 2026-05-07 21:36 | 33.11031 | -100.83486 | 27261 ft | 460 kts | 137° |
| 2026-05-07 21:37 | 33.09088 | -100.80447 | 27672 ft | 462 kts | 137° |
| 2026-05-07 21:37 | 33.07132 | -100.77390 | 28100 ft | 464 kts | 137° |
| 2026-05-07 21:37 | 33.05196 | -100.74367 | 28512 ft | 466 kts | 137° |
| 2026-05-07 21:37 | 33.03224 | -100.71289 | 28926 ft | 469 kts | 138° |
| 2026-05-07 21:38 | 33.01241 | -100.68198 | 29337 ft | 471 kts | 138° |
| 2026-05-07 21:38 | 32.99248 | -100.65093 | 29751 ft | 473 kts | 138° |
| 2026-05-07 21:38 | 32.97247 | -100.61978 | 30134 ft | 475 kts | 139° |
| 2026-05-07 21:38 | 32.95236 | -100.58850 | 30453 ft | 477 kts | 139° |
| 2026-05-07 21:39 | 32.93215 | -100.55710 | 30761 ft | 479 kts | 139° |
| 2026-05-07 21:39 | 32.91182 | -100.52554 | 31062 ft | 481 kts | 139° |
| 2026-05-07 21:39 | 32.89140 | -100.49386 | 31377 ft | 484 kts | 139° |
| 2026-05-07 21:39 | 32.87088 | -100.46206 | 31688 ft | 486 kts | 139° |
| 2026-05-07 21:40 | 32.85051 | -100.43052 | 31989 ft | 488 kts | 139° |
| 2026-05-07 21:40 | 32.82981 | -100.39847 | 32292 ft | 490 kts | 139° |
| 2026-05-07 21:40 | 32.80898 | -100.36628 | 32594 ft | 492 kts | 139° |
| 2026-05-07 21:40 | 32.78805 | -100.33396 | 32909 ft | 494 kts | 139° |
| 2026-05-07 21:41 | 32.76707 | -100.30160 | 33300 ft | 494 kts | 139° |
| 2026-05-07 21:41 | 32.74614 | -100.26933 | 33717 ft | 493 kts | 139° |
| 2026-05-07 21:41 | 32.72524 | -100.23713 | 34101 ft | 492 kts | 139° |
| 2026-05-07 21:41 | 32.70439 | -100.20506 | 34491 ft | 490 kts | 139° |
| 2026-05-07 21:42 | 32.68355 | -100.17302 | 34779 ft | 490 kts | 139° |
| 2026-05-07 21:42 | 32.66272 | -100.14102 | 35071 ft | 490 kts | 139° |
| 2026-05-07 21:42 | 32.64213 | -100.10940 | 35359 ft | 491 kts | 140° |
| 2026-05-07 21:42 | 32.62127 | -100.07741 | 35652 ft | 491 kts | 140° |
| 2026-05-07 21:43 | 32.60037 | -100.04539 | 35928 ft | 491 kts | 140° |
| 2026-05-07 21:43 | 32.57947 | -100.01338 | 36198 ft | 491 kts | 140° |
| 2026-05-07 21:43 | 32.55855 | -99.98137 | 36472 ft | 491 kts | 140° |
| 2026-05-07 21:43 | 32.53764 | -99.94941 | 36737 ft | 491 kts | 140° |
| 2026-05-07 21:44 | 32.51671 | -99.91743 | 36978 ft | 491 kts | 140° |
| 2026-05-07 21:44 | 32.49550 | -99.88577 | 37016 ft | 485 kts | 145° |
| 2026-05-07 21:44 | 32.47102 | -99.86068 | 36990 ft | 449 kts | 161° |
| 2026-05-07 21:44 | 32.44487 | -99.84191 | 37068 ft | 447 kts | 162° |
| 2026-05-07 21:45 | 32.39111 | -99.80513 | 37066 ft | 446 kts | 164° |
| 2026-05-07 21:45 | 32.33690 | -99.76946 | 37037 ft | 445 kts | 165° |
| 2026-05-07 21:46 | 32.28265 | -99.73419 | 37043 ft | 445 kts | 165° |
| 2026-05-07 21:46 | 32.22880 | -99.69927 | 37013 ft | 445 kts | 164° |
| 2026-05-07 21:47 | 32.17454 | -99.66413 | 37048 ft | 445 kts | 164° |
| 2026-05-07 21:47 | 32.12026 | -99.62902 | 37051 ft | 444 kts | 164° |
| 2026-05-07 21:48 | 32.06601 | -99.59398 | 37070 ft | 445 kts | 164° |
| 2026-05-07 21:48 | 32.01176 | -99.55899 | 37081 ft | 444 kts | 164° |
| 2026-05-07 21:49 | 31.95750 | -99.52404 | 37078 ft | 445 kts | 164° |
| 2026-05-07 21:49 | 31.90349 | -99.48929 | 37101 ft | 445 kts | 164° |
| 2026-05-07 21:50 | 31.84911 | -99.45437 | 37106 ft | 446 kts | 164° |
| 2026-05-07 21:50 | 31.79439 | -99.41926 | 37105 ft | 449 kts | 164° |
| 2026-05-07 21:51 | 31.73999 | -99.38441 | 37100 ft | 448 kts | 164° |
| 2026-05-07 21:51 | 31.68505 | -99.34927 | 37075 ft | 452 kts | 163° |
| 2026-05-07 21:52 | 31.62974 | -99.31393 | 37072 ft | 452 kts | 163° |
| 2026-05-07 21:52 | 31.57445 | -99.27865 | 37078 ft | 452 kts | 163° |
| 2026-05-07 21:53 | 31.51919 | -99.24344 | 37079 ft | 452 kts | 163° |
| 2026-05-07 21:53 | 31.46424 | -99.20848 | 37037 ft | 452 kts | 163° |
| 2026-05-07 21:54 | 31.40865 | -99.17316 | 37114 ft | 457 kts | 163° |
| 2026-05-07 21:54 | 31.35223 | -99.13736 | 37103 ft | 463 kts | 163° |
| 2026-05-07 21:55 | 31.30513 | -99.10750 | 37096 ft | 463 kts | 163° |
| 2026-05-07 21:55 | 31.23931 | -99.06584 | 37101 ft | 462 kts | 163° |
| 2026-05-07 21:56 | 31.18280 | -99.03013 | 37070 ft | 460 kts | 164° |
| 2026-05-07 21:56 | 31.12674 | -98.99476 | 37084 ft | 457 kts | 164° |
| 2026-05-07 21:57 | 31.08021 | -98.96543 | 37084 ft | 458 kts | 164° |
| 2026-05-07 21:57 | 31.02421 | -98.93018 | 37073 ft | 457 kts | 164° |
| 2026-05-07 21:58 | 30.95914 | -98.88926 | 37062 ft | 457 kts | 164° |
| 2026-05-07 21:58 | 30.91229 | -98.85984 | 37059 ft | 457 kts | 163° |
| 2026-05-07 21:59 | 30.85666 | -98.82491 | 37095 ft | 458 kts | 162° |
| 2026-05-07 21:59 | 30.83014 | -98.80320 | 37080 ft | 478 kts | 148° |
| 2026-05-07 21:59 | 30.80791 | -98.77343 | 37099 ft | 499 kts | 133° |
| 2026-05-07 22:00 | 30.79177 | -98.73683 | 37089 ft | 520 kts | 116° |
| 2026-05-07 22:00 | 30.78380 | -98.69518 | 37108 ft | 535 kts | 102° |
| 2026-05-07 22:00 | 30.77358 | -98.60928 | 37103 ft | 537 kts | 105° |
| 2026-05-07 22:01 | 30.76242 | -98.52335 | 37094 ft | 537 kts | 105° |
| 2026-05-07 22:01 | 30.75134 | -98.43802 | 37088 ft | 537 kts | 105° |
| 2026-05-07 22:02 | 30.74013 | -98.35216 | 37097 ft | 537 kts | 105° |
| 2026-05-07 22:02 | 30.72885 | -98.26625 | 37096 ft | 538 kts | 105° |
| 2026-05-07 22:03 | 30.71759 | -98.18090 | 37106 ft | 538 kts | 105° |
| 2026-05-07 22:03 | 30.70621 | -98.09499 | 37080 ft | 538 kts | 105° |
| 2026-05-07 22:04 | 30.69473 | -98.00916 | 37113 ft | 538 kts | 104° |
| 2026-05-07 22:04 | 30.68315 | -97.92328 | 37113 ft | 538 kts | 105° |
| 2026-05-07 22:05 | 30.67159 | -97.83796 | 37101 ft | 538 kts | 105° |
| 2026-05-07 22:05 | 30.65990 | -97.75212 | 37101 ft | 538 kts | 105° |
| 2026-05-07 22:06 | 30.64815 | -97.66627 | 37098 ft | 538 kts | 105° |
| 2026-05-07 22:06 | 30.63636 | -97.58056 | 37053 ft | 537 kts | 105° |
| 2026-05-07 22:07 | 30.63047 | -97.53789 | 36260 ft | 537 kts | 105° |
| 2026-05-07 22:07 | 30.62452 | -97.49493 | 35099 ft | 539 kts | 105° |
| 2026-05-07 22:07 | 30.61866 | -97.45265 | 34187 ft | 536 kts | 105° |
| 2026-05-07 22:07 | 30.61277 | -97.41024 | 33338 ft | 528 kts | 105° |
| 2026-05-07 22:08 | 30.60691 | -97.36830 | 32718 ft | 525 kts | 105° |
| 2026-05-07 22:08 | 30.60109 | -97.32658 | 32155 ft | 522 kts | 104° |
| 2026-05-07 22:08 | 30.59528 | -97.28510 | 31523 ft | 520 kts | 104° |
| 2026-05-07 22:08 | 30.58947 | -97.24377 | 30833 ft | 521 kts | 104° |
| 2026-05-07 22:09 | 30.58362 | -97.20224 | 30118 ft | 522 kts | 104° |
| 2026-05-07 22:09 | 30.57776 | -97.16074 | 29388 ft | 521 kts | 104° |
| 2026-05-07 22:09 | 30.57190 | -97.11937 | 28740 ft | 518 kts | 104° |
| 2026-05-07 22:09 | 30.56613 | -97.07882 | 28130 ft | 514 kts | 105° |
| 2026-05-07 22:10 | 30.55728 | -97.03902 | 27411 ft | 507 kts | 113° |
| 2026-05-07 22:10 | 30.54687 | -97.00010 | 26850 ft | 504 kts | 112° |
| 2026-05-07 22:10 | 30.53658 | -96.96140 | 26233 ft | 501 kts | 112° |
| 2026-05-07 22:10 | 30.52627 | -96.92283 | 25616 ft | 499 kts | 113° |
| 2026-05-07 22:11 | 30.51601 | -96.88450 | 25008 ft | 497 kts | 112° |
| 2026-05-07 22:11 | 30.50578 | -96.84632 | 24406 ft | 495 kts | 112° |
| 2026-05-07 22:11 | 30.49556 | -96.80823 | 23811 ft | 493 kts | 112° |
| 2026-05-07 22:11 | 30.48516 | -96.77032 | 23055 ft | 493 kts | 113° |
| 2026-05-07 22:12 | 30.47479 | -96.73264 | 22458 ft | 488 kts | 112° |
| 2026-05-07 22:12 | 30.46468 | -96.69590 | 21941 ft | 482 kts | 112° |
| 2026-05-07 22:12 | 30.45451 | -96.65904 | 21396 ft | 478 kts | 112° |
| 2026-05-07 22:12 | 30.44446 | -96.62260 | 20839 ft | 470 kts | 112° |
| 2026-05-07 22:13 | 30.43465 | -96.58710 | 20314 ft | 454 kts | 112° |
| 2026-05-07 22:13 | 30.42368 | -96.55369 | 19722 ft | 434 kts | 124° |
| 2026-05-07 22:13 | 30.40749 | -96.52524 | 19217 ft | 416 kts | 130° |
| 2026-05-07 22:13 | 30.39149 | -96.49790 | 18736 ft | 405 kts | 130° |
| 2026-05-07 22:14 | 30.37569 | -96.47111 | 18215 ft | 402 kts | 130° |
| 2026-05-07 22:14 | 30.36002 | -96.44461 | 17658 ft | 397 kts | 131° |
| 2026-05-07 22:14 | 30.34469 | -96.41884 | 17112 ft | 391 kts | 131° |
| 2026-05-07 22:14 | 30.32932 | -96.39300 | 16611 ft | 387 kts | 130° |
| 2026-05-07 22:15 | 30.31412 | -96.36748 | 16096 ft | 383 kts | 130° |
| 2026-05-07 22:15 | 30.29904 | -96.34215 | 15613 ft | 382 kts | 130° |
| 2026-05-07 22:15 | 30.28392 | -96.31679 | 15117 ft | 383 kts | 130° |
| 2026-05-07 22:15 | 30.26877 | -96.29139 | 14616 ft | 384 kts | 129° |
| 2026-05-07 22:16 | 30.25361 | -96.26599 | 14131 ft | 384 kts | 129° |
| 2026-05-07 22:16 | 30.23843 | -96.24057 | 13622 ft | 384 kts | 128° |
| 2026-05-07 22:16 | 30.22124 | -96.21746 | 13017 ft | 374 kts | 145° |
| 2026-05-07 22:16 | 30.19934 | -96.20296 | 12512 ft | 354 kts | 160° |
| 2026-05-07 22:17 | 30.17763 | -96.19144 | 12155 ft | 344 kts | 159° |
| 2026-05-07 22:17 | 30.15594 | -96.17977 | 11689 ft | 345 kts | 159° |
| 2026-05-07 22:17 | 30.13359 | -96.16777 | 10776 ft | 357 kts | 158° |
| 2026-05-07 22:17 | 30.11186 | -96.15612 | 10834 ft | 328 kts | 159° |
| 2026-05-07 22:18 | 30.09192 | -96.14545 | 10856 ft | 304 kts | 159° |
| 2026-05-07 22:18 | 30.05433 | -96.12503 | 10877 ft | 298 kts | 157° |
| 2026-05-07 22:18 | 30.03584 | -96.11436 | 10881 ft | 297 kts | 158° |
| 2026-05-07 22:19 | 30.01735 | -96.10372 | 10920 ft | 297 kts | 158° |
| 2026-05-07 22:19 | 29.99910 | -96.09327 | 10934 ft | 297 kts | 158° |
| 2026-05-07 22:19 | 29.98061 | -96.08268 | 10940 ft | 297 kts | 157° |
| 2026-05-07 22:19 | 29.96214 | -96.07213 | 10955 ft | 294 kts | 156° |
| 2026-05-07 22:20 | 29.94390 | -96.06170 | 10966 ft | 292 kts | 156° |
| 2026-05-07 22:20 | 29.92574 | -96.05132 | 10970 ft | 291 kts | 156° |
| 2026-05-07 22:20 | 29.90760 | -96.04097 | 10984 ft | 291 kts | 156° |
| 2026-05-07 22:20 | 29.88943 | -96.03060 | 10994 ft | 291 kts | 156° |
| 2026-05-07 22:21 | 29.87126 | -96.02024 | 10999 ft | 291 kts | 156° |
| 2026-05-07 22:21 | 29.85311 | -96.00988 | 11007 ft | 291 kts | 156° |
| 2026-05-07 22:21 | 29.83520 | -95.99967 | 11015 ft | 291 kts | 156° |
| 2026-05-07 22:21 | 29.81735 | -95.98847 | 10955 ft | 293 kts | 153° |
| 2026-05-07 22:22 | 29.79972 | -95.97677 | 10756 ft | 292 kts | 153° |
| 2026-05-07 22:22 | 29.78215 | -95.96520 | 10569 ft | 291 kts | 153° |
| 2026-05-07 22:22 | 29.76458 | -95.95369 | 10393 ft | 290 kts | 153° |
| 2026-05-07 22:22 | 29.74704 | -95.94222 | 10217 ft | 290 kts | 153° |
| 2026-05-07 22:23 | 29.72947 | -95.93077 | 10054 ft | 290 kts | 153° |
| 2026-05-07 22:23 | 29.71188 | -95.91937 | 9795 ft | 290 kts | 153° |
| 2026-05-07 22:23 | 29.69428 | -95.90797 | 9518 ft | 290 kts | 152° |
| 2026-05-07 22:23 | 29.67681 | -95.89666 | 9287 ft | 287 kts | 152° |
| 2026-05-07 22:24 | 29.65976 | -95.88556 | 9077 ft | 284 kts | 151° |
| 2026-05-07 22:24 | 29.64493 | -95.87092 | 8821 ft | 282 kts | 130° |
| 2026-05-07 22:24 | 29.63235 | -95.85368 | 8607 ft | 282 kts | 132° |
| 2026-05-07 22:24 | 29.61958 | -95.83653 | 8413 ft | 282 kts | 131° |
| 2026-05-07 22:25 | 29.60687 | -95.81941 | 8195 ft | 281 kts | 131° |
| 2026-05-07 22:25 | 29.59421 | -95.80235 | 7985 ft | 280 kts | 131° |
| 2026-05-07 22:25 | 29.58158 | -95.78531 | 7771 ft | 279 kts | 131° |
| 2026-05-07 22:25 | 29.56901 | -95.76837 | 7555 ft | 278 kts | 131° |
| 2026-05-07 22:26 | 29.55650 | -95.75150 | 7341 ft | 277 kts | 131° |
| 2026-05-07 22:26 | 29.54421 | -95.73493 | 7130 ft | 275 kts | 130° |
| 2026-05-07 22:26 | 29.53193 | -95.71839 | 6904 ft | 267 kts | 130° |
| 2026-05-07 22:26 | 29.52013 | -95.70250 | 6711 ft | 254 kts | 130° |
| 2026-05-07 22:27 | 29.50901 | -95.68753 | 6553 ft | 240 kts | 130° |
| 2026-05-07 22:27 | 29.49844 | -95.67330 | 6347 ft | 230 kts | 130° |
| 2026-05-07 22:27 | 29.48834 | -95.65966 | 6197 ft | 218 kts | 128° |
| 2026-05-07 22:27 | 29.48205 | -95.64440 | 5936 ft | 210 kts | 101° |
| 2026-05-07 22:28 | 29.48003 | -95.62811 | 5708 ft | 204 kts | 97° |
| 2026-05-07 22:28 | 29.47838 | -95.61226 | 5492 ft | 196 kts | 96° |
| 2026-05-07 22:28 | 29.47697 | -95.59717 | 5290 ft | 189 kts | 96° |
| 2026-05-07 22:28 | 29.47567 | -95.58250 | 5107 ft | 181 kts | 96° |
| 2026-05-07 22:29 | 29.47448 | -95.56844 | 4924 ft | 174 kts | 96° |
| 2026-05-07 22:29 | 29.47334 | -95.55455 | 4784 ft | 175 kts | 96° |
| 2026-05-07 22:29 | 29.47222 | -95.54060 | 4661 ft | 175 kts | 96° |
| 2026-05-07 22:29 | 29.47113 | -95.52672 | 4518 ft | 174 kts | 96° |
| 2026-05-07 22:30 | 29.47006 | -95.51299 | 4366 ft | 172 kts | 96° |
| 2026-05-07 22:30 | 29.46901 | -95.49940 | 4214 ft | 171 kts | 96° |
| 2026-05-07 22:30 | 29.46810 | -95.48609 | 4058 ft | 169 kts | 90° |
| 2026-05-07 22:30 | 29.47173 | -95.47357 | 3807 ft | 168 kts | 54° |
| 2026-05-07 22:31 | 29.47936 | -95.46350 | 3652 ft | 166 kts | 50° |
| 2026-05-07 22:31 | 29.48720 | -95.45382 | 3468 ft | 165 kts | 49° |
| 2026-05-07 22:31 | 29.49524 | -95.44441 | 3291 ft | 165 kts | 47° |
| 2026-05-07 22:31 | 29.50335 | -95.43519 | 3114 ft | 164 kts | 48° |
| 2026-05-07 22:32 | 29.51146 | -95.42613 | 2912 ft | 162 kts | 47° |
| 2026-05-07 22:32 | 29.51953 | -95.41715 | 2732 ft | 162 kts | 46° |
| 2026-05-07 22:32 | 29.52762 | -95.40823 | 2577 ft | 161 kts | 47° |
| 2026-05-07 22:32 | 29.53560 | -95.39935 | 2440 ft | 159 kts | 47° |
| 2026-05-07 22:33 | 29.54352 | -95.39063 | 2245 ft | 160 kts | 46° |
| 2026-05-07 22:33 | 29.55156 | -95.38177 | 2017 ft | 159 kts | 45° |
| 2026-05-07 22:33 | 29.55920 | -95.37336 | 1910 ft | 145 kts | 44° |
| 2026-05-07 22:33 | 29.56679 | -95.36496 | 1952 ft | 161 kts | 45° |
| 2026-05-07 22:34 | 29.57492 | -95.35600 | 1722 ft | 161 kts | 44° |
| 2026-05-07 22:34 | 29.58285 | -95.34727 | 1569 ft | 162 kts | 43° |
| 2026-05-07 22:34 | 29.59143 | -95.33847 | 1313 ft | 166 kts | 44° |
| 2026-05-07 22:34 | 29.59947 | -95.32894 | 1121 ft | 155 kts | 46° |
| 2026-05-07 22:35 | 29.60673 | -95.32106 | 1060 ft | 135 kts | 43° |
| 2026-05-07 22:35 | 29.61367 | -95.31373 | 803 ft | 136 kts | 44° |
| 2026-05-07 22:35 | 29.62055 | -95.30575 | 627 ft | 151 kts | 43° |
| 2026-05-07 22:35 | 29.62798 | -95.29758 | 418 ft | 148 kts | 44° |
| 2026-05-07 22:36 | 29.63535 | -95.28946 | 212 ft | 142 kts | 45° |
| 2026-05-07 22:36 | 29.64228 | -95.28180 | 57 ft | 131 kts | 44° |
| 2026-05-07 22:36 | 29.64755 | -95.27600 | 51 ft | 72 kts | 44° |
| 2026-05-07 22:36 | 29.64997 | -95.27334 | 54 ft | 38 kts | 43° |
| 2026-05-07 22:37 | 29.65160 | -95.27203 | 54 ft | 24 kts | 19° |
| 2026-05-07 22:37 | 29.65274 | -95.27194 | 50 ft | 13 kts | 326° |
| 2026-05-07 22:37 | 29.65265 | -95.27278 | 51 ft | 12 kts | 227° |
| 2026-05-07 22:37 | 29.65197 | -95.27354 | 49 ft | 15 kts | 223° |
| 2026-05-07 22:38 | 29.65147 | -95.27444 | 54 ft | 13 kts | 270° |
| 2026-05-07 22:38 | 29.65146 | -95.27557 | 54 ft | 15 kts | 268° |
| 2026-05-07 22:38 | 29.65143 | -95.27689 | 54 ft | 18 kts | 269° |
| 2026-05-07 22:38 | 29.65140 | -95.27838 | 54 ft | 16 kts | 271° |
| 2026-05-07 22:39 | 29.65202 | -95.27938 | 54 ft | 17 kts | 314° |
| 2026-05-07 22:39 | 29.65275 | -95.27985 | 54 ft | 10 kts | 28° |
| 2026-05-07 22:39 | 29.65323 | -95.27914 | 53 ft | 13 kts | 60° |
| 2026-05-07 22:39 | 29.65340 | -95.27874 | 54 ft | 2 kts | 103° |
| 2026-05-07 22:40 | 29.65332 | -95.27863 | 54 ft | 3 kts | 142° |
| 2026-05-07 22:40 | 29.65308 | -95.27849 | 52 ft | 4 kts | 156° |
| 2026-05-07 22:40 | 29.65292 | -95.27842 | 51 ft | 0 kts | 158° |